Time;durP1;ratioP1;P1;durP2;ratioP2;P2;SDS_P1;SDS_P2;PMS_P1;PMS_P2;Temp;Humidity;BMP_temperature;BMP_pressure;BME280_temperature;BME280_humidity;BME280_pressure;Samples;Min_cycle;Max_cycle;Signal;HPM_P1;HPM_P2
2022/03/14 00:01:52;;;;;;;26.73;15.07;;;;;;;1.87;61.18;101971.53;5076265;28;20392;-66
2022/03/14 00:04:18;;;;;;;31.35;17.05;;;;;;;1.82;61.29;101975.66;5075828;28;20063;-65
2022/03/14 00:06:46;;;;;;;29.05;17.38;;;;;;;1.69;61.46;101980.38;5076869;28;20044;-66
2022/03/14 00:09:11;;;;;;;29.60;17.45;;;;;;;1.61;61.76;101979.19;5072163;28;20067;-66
2022/03/14 00:11:37;;;;;;;31.20;17.15;;;;;;;1.59;61.73;101979.94;5069688;28;20370;-65
2022/03/14 00:14:08;;;;;;;29.40;17.73;;;;;;;1.53;61.59;101975.41;5056698;28;20104;-65
2022/03/14 00:16:41;;;;;;;32.72;17.25;;;;;;;1.43;62.00;101981.88;5056715;28;20036;-66
2022/03/14 00:19:07;;;;;;;32.05;17.85;;;;;;;1.39;62.13;101976.53;5065973;28;20356;-66
2022/03/14 00:21:41;;;;;;;29.92;16.52;;;;;;;1.37;62.01;101980.78;5075328;28;20494;-66
2022/03/14 00:24:09;;;;;;;28.73;16.60;;;;;;;1.35;62.02;101982.41;5076799;28;20029;-66
2022/03/14 00:26:34;;;;;;;36.83;18.90;;;;;;;1.32;62.43;101988.34;5075110;28;20119;-65
2022/03/14 00:29:00;;;;;;;38.05;19.55;;;;;;;1.33;62.44;101986.66;5075214;28;20459;-65
2022/03/14 00:31:26;;;;;;;40.22;21.38;;;;;;;1.29;62.50;101985.63;5067857;28;20460;-65
2022/03/14 00:33:52;;;;;;;39.63;20.55;;;;;;;1.31;62.78;101985.69;5073984;28;20075;-65
2022/03/14 00:36:19;;;;;;;34.95;18.10;;;;;;;1.25;62.92;101985.44;5054927;28;20393;-65
2022/03/14 00:38:45;;;;;;;31.83;17.27;;;;;;;1.25;62.54;101994.09;5059281;28;20033;-65
2022/03/14 00:41:12;;;;;;;39.22;21.05;;;;;;;1.17;63.03;101991.19;5071796;28;20040;-65
2022/03/14 00:43:38;;;;;;;36.67;19.52;;;;;;;1.11;63.05;101993.50;5073774;28;20055;-65
2022/03/14 00:46:04;;;;;;;37.42;20.83;;;;;;;1.05;63.12;101997.56;5054796;28;20408;-65
2022/03/14 00:48:32;;;;;;;34.40;17.45;;;;;;;1.00;62.89;101987.00;5071471;28;20070;-65
2022/03/14 00:50:58;;;;;;;29.95;16.40;;;;;;;0.97;62.77;101985.16;5068636;28;20041;-65
2022/03/14 00:53:23;;;;;;;31.85;17.88;;;;;;;0.91;62.77;101984.00;5069671;28;20533;-62
2022/03/14 00:55:49;;;;;;;31.67;18.05;;;;;;;0.83;62.90;101983.66;5062076;28;20045;-66
2022/03/14 00:58:14;;;;;;;35.45;19.05;;;;;;;0.75;63.78;101992.78;5073416;28;20394;-66
2022/03/14 01:00:40;;;;;;;40.70;21.98;;;;;;;0.71;63.91;101984.00;5074431;28;20060;-65
2022/03/14 01:03:05;;;;;;;41.33;22.65;;;;;;;0.65;64.06;101981.16;5074814;28;20586;-66
2022/03/14 01:05:31;;;;;;;34.97;19.42;;;;;;;0.58;64.66;101989.47;5074972;28;20032;-66
2022/03/14 01:07:56;;;;;;;38.55;21.08;;;;;;;0.56;64.20;101996.28;5074131;28;20036;-66
2022/03/14 01:10:23;;;;;;;41.10;21.42;;;;;;;0.51;64.43;101992.59;5073207;28;20506;-65
2022/03/14 01:12:49;;;;;;;38.67;21.13;;;;;;;0.49;64.53;101999.41;5061648;28;20603;-65
2022/03/14 01:15:14;;;;;;;35.22;18.85;;;;;;;0.42;64.73;101997.38;5055450;28;20120;-64
2022/03/14 01:17:40;;;;;;;37.65;20.45;;;;;;;0.42;64.85;101992.19;5074706;28;20036;-64
2022/03/14 01:20:08;;;;;;;36.72;19.48;;;;;;;0.42;64.98;101994.78;5072388;28;20082;-65
2022/03/14 01:22:34;;;;;;;39.25;21.63;;;;;;;0.46;65.17;101994.09;5055744;28;20045;-65
2022/03/14 01:24:59;;;;;;;37.72;18.52;;;;;;;0.46;65.27;101996.69;5074244;28;20446;-65
2022/03/14 01:27:24;;;;;;;41.92;22.58;;;;;;;0.49;65.42;101996.84;5063939;28;20037;-65
2022/03/14 01:29:50;;;;;;;41.72;21.00;;;;;;;0.47;65.35;101996.75;5064068;28;20124;-65
2022/03/14 01:32:15;;;;;;;42.15;22.80;;;;;;;0.51;65.52;101997.78;5071135;28;20130;-65
2022/03/14 01:34:41;;;;;;;38.50;21.00;;;;;;;0.52;65.40;102001.25;5072907;28;20039;-65
2022/03/14 01:37:06;;;;;;;42.13;21.73;;;;;;;0.54;65.43;102002.22;5073535;28;20039;-66
2022/03/14 01:39:32;;;;;;;39.90;19.92;;;;;;;0.55;65.49;102004.84;5068696;28;20021;-65
2022/03/14 01:41:58;;;;;;;39.85;21.13;;;;;;;0.57;65.67;102003.22;5063472;28;20032;-65
2022/03/14 01:44:24;;;;;;;35.83;19.48;;;;;;;0.58;65.81;102009.28;5059320;28;20037;-65
2022/03/14 01:46:50;;;;;;;37.97;19.20;;;;;;;0.61;65.56;102004.25;5058451;28;20033;-65
2022/03/14 01:49:15;;;;;;;33.83;16.95;;;;;;;0.63;65.60;102003.50;5054625;28;20461;-65
2022/03/14 01:51:41;;;;;;;36.88;19.00;;;;;;;0.61;65.68;102007.72;5014380;28;1289973;-64
2022/03/14 01:54:09;;;;;;;31.15;17.02;;;;;;;0.56;65.57;102017.00;5061166;28;20064;-65
2022/03/14 01:56:35;;;;;;;29.95;17.10;;;;;;;0.58;65.61;102010.16;5058971;28;20029;-66
2022/03/14 01:59:01;;;;;;;34.10;17.95;;;;;;;0.54;65.69;102004.78;5063513;28;20465;-64
2022/03/14 02:01:27;;;;;;;30.98;16.25;;;;;;;0.55;65.66;102001.38;5063388;28;20047;-65
2022/03/14 02:03:53;;;;;;;31.30;17.65;;;;;;;0.54;65.72;102005.66;5062158;28;20032;-65
2022/03/14 02:06:19;;;;;;;36.97;18.27;;;;;;;0.55;65.93;102010.03;5074691;28;20361;-64
2022/03/14 02:08:45;;;;;;;36.33;18.27;;;;;;;0.57;66.01;102007.53;5072329;28;20041;-64
2022/03/14 02:11:11;;;;;;;30.90;17.13;;;;;;;0.60;66.04;102008.56;5074502;28;20070;-64
2022/03/14 02:13:36;;;;;;;38.90;21.77;;;;;;;0.63;65.70;102008.66;5066797;28;20055;-65
2022/03/14 02:16:02;;;;;;;47.47;24.10;;;;;;;0.65;65.99;102012.22;5053493;28;20044;-64
2022/03/14 02:18:27;;;;;;;52.80;27.08;;;;;;;0.67;65.56;102010.56;5070456;28;20037;-65
2022/03/14 02:20:53;;;;;;;51.88;25.92;;;;;;;0.67;65.55;102015.75;5074408;28;20032;-64
2022/03/14 02:23:19;;;;;;;46.13;23.70;;;;;;;0.62;65.78;102016.38;5058992;28;20037;-65
2022/03/14 02:25:52;;;;;;;44.50;21.75;;;;;;;0.52;66.48;102014.16;5073910;28;20045;-65
2022/03/14 02:28:20;;;;;;;43.95;20.70;;;;;;;0.52;66.40;102014.16;5059848;28;20033;-64
2022/03/14 02:30:46;;;;;;;54.95;24.50;;;;;;;0.49;65.99;102010.66;5087155;28;20392;-65
2022/03/14 02:33:11;;;;;;;43.70;20.20;;;;;;;0.48;65.95;102020.94;5066681;28;20033;-65
2022/03/14 02:35:39;;;;;;;49.10;21.90;;;;;;;0.39;66.48;102023.06;5064632;28;20068;-64
2022/03/14 02:38:11;;;;;;;43.92;18.58;;;;;;;0.42;66.56;102025.81;5072800;28;20033;-64
2022/03/14 02:40:39;;;;;;;39.55;18.35;;;;;;;0.42;66.57;102015.47;5072114;28;20086;-64
2022/03/14 02:43:05;;;;;;;33.65;16.63;;;;;;;0.39;66.46;102025.66;5072612;28;20375;-65
2022/03/14 02:45:32;;;;;;;39.03;20.15;;;;;;;0.38;66.39;102016.16;5069272;28;20047;-65
2022/03/14 02:47:58;;;;;;;45.80;21.33;;;;;;;0.29;66.81;102028.66;5052850;28;20459;-65
2022/03/14 02:50:23;;;;;;;50.78;23.75;;;;;;;0.30;66.92;102033.00;5053786;28;20487;-65
2022/03/14 02:52:49;;;;;;;52.60;23.90;;;;;;;0.26;67.03;102033.69;5053765;28;20392;-65
2022/03/14 02:55:17;;;;;;;40.53;18.33;;;;;;;0.20;67.00;102030.00;5053736;28;20116;-64
2022/03/14 02:57:43;;;;;;;41.22;19.58;;;;;;;0.22;66.86;102038.69;5052594;28;20472;-65
2022/03/14 03:00:10;;;;;;;40.40;19.75;;;;;;;0.18;66.98;102039.38;5060786;28;20127;-65
2022/03/14 03:02:36;;;;;;;46.35;25.30;;;;;;;0.18;66.64;102039.38;5072946;28;20063;-65
2022/03/14 03:05:05;;;;;;;41.70;21.63;;;;;;;0.13;67.44;102033.13;5062853;28;20071;-64
2022/03/14 03:07:31;;;;;;;46.20;23.85;;;;;;;0.09;67.68;102043.25;5052312;28;20040;-64
2022/03/14 03:09:56;;;;;;;44.28;22.85;;;;;;;0.04;67.71;102032.69;5072502;28;20036;-65
2022/03/14 03:12:25;;;;;;;58.58;28.00;;;;;;;-0.05;68.16;102037.41;5070087;28;20036;-64
2022/03/14 03:14:50;;;;;;;50.30;24.30;;;;;;;-0.03;68.05;102044.41;5038846;28;20040;-64
2022/03/14 03:17:16;;;;;;;61.30;29.33;;;;;;;0.01;68.20;102044.56;5053833;28;20033;-64
2022/03/14 03:19:41;;;;;;;69.35;30.70;;;;;;;-0.05;68.73;102053.78;5052043;28;20068;-64
2022/03/14 03:22:06;;;;;;;59.35;26.73;;;;;;;-0.05;68.42;102055.47;5060965;28;20074;-64
2022/03/14 03:24:32;;;;;;;62.22;27.65;;;;;;;-0.03;68.04;102053.88;5071779;28;20395;-65
2022/03/14 03:26:58;;;;;;;56.72;26.75;;;;;;;-0.09;68.34;102048.41;5073467;28;20036;-65
2022/03/14 03:29:24;;;;;;;47.60;23.52;;;;;;;-0.10;68.52;102038.88;5073537;28;20139;-65
2022/03/14 03:31:49;;;;;;;52.00;23.65;;;;;;;-0.06;68.11;102038.22;5071272;28;20087;-64
2022/03/14 03:34:15;;;;;;;47.03;22.50;;;;;;;-0.03;68.51;102049.59;5062202;28;20465;-65
2022/03/14 03:36:41;;;;;;;49.95;26.55;;;;;;;-0.05;68.11;102056.38;5057568;28;20033;-65
2022/03/14 03:39:06;;;;;;;45.15;25.00;;;;;;;-0.14;68.53;102055.94;5049529;28;20039;-65
2022/03/14 03:41:31;;;;;;;44.28;23.70;;;;;;;-0.22;68.36;102052.09;5072659;28;20042;-65
2022/03/14 03:43:57;;;;;;;46.55;23.55;;;;;;;-0.32;68.66;102061.09;5073050;28;20427;-65
2022/03/14 03:46:23;;;;;;;46.05;23.23;;;;;;;-0.40;68.59;102056.34;5072218;28;20044;-65
2022/03/14 03:48:48;;;;;;;42.70;21.98;;;;;;;-0.44;69.04;102054.41;5072459;28;20038;-65
2022/03/14 03:51:14;;;;;;;43.55;22.85;;;;;;;-0.45;68.96;102057.81;5062232;28;20488;-65
2022/03/14 03:53:39;;;;;;;42.25;21.88;;;;;;;-0.50;69.15;102047.25;5059501;28;20496;-65
2022/03/14 03:56:05;;;;;;;40.70;20.75;;;;;;;-0.48;69.06;102053.38;5065453;28;20041;-66
2022/03/14 03:58:30;;;;;;;35.20;19.33;;;;;;;-0.49;69.07;102054.19;5051796;28;20052;-65
2022/03/14 04:00:55;;;;;;;47.22;24.08;;;;;;;-0.49;69.44;102046.44;5056455;28;20064;-65
2022/03/14 04:03:21;;;;;;;39.75;19.83;;;;;;;-0.47;69.43;102047.44;5071784;28;20047;-65
2022/03/14 04:05:48;;;;;;;31.20;16.98;;;;;;;-0.50;69.18;102050.72;5072127;28;20044;-65
2022/03/14 04:08:13;;;;;;;40.83;21.40;;;;;;;-0.53;69.46;102049.69;5072065;28;20020;-65
2022/03/14 04:10:39;;;;;;;38.30;20.23;;;;;;;-0.50;69.16;102042.97;5072171;28;20036;-65
2022/03/14 04:13:05;;;;;;;42.70;21.08;;;;;;;-0.51;69.10;102045.50;5072204;28;20036;-65
2022/03/14 04:15:31;;;;;;;39.65;19.13;;;;;;;-0.54;69.05;102046.22;5063055;28;20041;-65
2022/03/14 04:17:57;;;;;;;42.47;20.98;;;;;;;-0.59;69.47;102051.97;5053311;28;20036;-65
2022/03/14 04:20:23;;;;;;;36.25;19.35;;;;;;;-0.63;69.44;102037.16;5074592;28;20055;-64
2022/03/14 04:22:49;;;;;;;37.78;19.83;;;;;;;-0.59;69.20;102047.69;5074725;28;20035;-65
2022/03/14 04:25:15;;;;;;;34.03;18.98;;;;;;;-0.57;69.09;102056.41;5058032;28;20036;-66
2022/03/14 04:27:41;;;;;;;40.97;21.95;;;;;;;-0.56;69.05;102058.19;5070805;28;20040;-65
2022/03/14 04:30:07;;;;;;;45.25;22.55;;;;;;;-0.47;68.89;102059.47;5057845;28;20078;-65
2022/03/14 04:32:33;;;;;;;40.78;21.23;;;;;;;-0.55;69.71;102067.69;5074726;28;20032;-66
2022/03/14 04:34:58;;;;;;;44.63;23.50;;;;;;;-0.55;69.38;102067.69;5056230;28;20048;-64
2022/03/14 04:37:24;;;;;;;45.42;24.30;;;;;;;-0.62;69.55;102063.03;5056694;28;20128;-66
2022/03/14 04:39:49;;;;;;;43.33;21.55;;;;;;;-0.61;69.92;102069.06;5059112;28;20078;-65
2022/03/14 04:42:16;;;;;;;37.53;21.90;;;;;;;-0.61;69.45;102056.16;5069350;28;20082;-65
2022/03/14 04:44:42;;;;;;;41.70;21.92;;;;;;;-0.66;69.43;102050.78;5074302;28;20044;-64
2022/03/14 04:47:07;;;;;;;43.38;21.80;;;;;;;-0.72;69.93;102057.31;5074252;28;20399;-64
2022/03/14 04:49:33;;;;;;;46.83;24.52;;;;;;;-0.72;69.77;102052.16;5076146;28;20090;-64
2022/03/14 04:51:59;;;;;;;56.83;27.20;;;;;;;-0.78;69.60;102063.94;5071457;28;20131;-65
2022/03/14 04:54:25;;;;;;;54.00;25.17;;;;;;;-0.82;69.64;102072.34;5074911;28;20127;-65
2022/03/14 04:56:52;;;;;;;52.42;25.55;;;;;;;-0.86;70.00;102070.41;5061876;28;20040;-65
2022/03/14 04:59:17;;;;;;;46.22;25.05;;;;;;;-0.81;70.36;102074.09;5072840;28;20042;-65
2022/03/14 05:01:43;;;;;;;45.58;23.10;;;;;;;-0.81;70.96;102078.38;5058644;28;20162;-65
2022/03/14 05:04:08;;;;;;;47.80;24.75;;;;;;;-0.74;70.33;102077.91;5069017;28;20047;-65
2022/03/14 05:06:34;;;;;;;54.38;25.13;;;;;;;-0.70;70.28;102071.19;5041862;28;20036;-65
2022/03/14 05:09:01;;;;;;;37.40;20.90;;;;;;;-0.65;70.04;102070.63;5056314;28;20468;-65
2022/03/14 05:11:26;;;;;;;48.97;24.67;;;;;;;-0.61;70.21;102072.53;5057324;28;20134;-65
2022/03/14 05:13:52;;;;;;;42.25;24.42;;;;;;;-0.59;70.17;102082.97;5075858;28;20052;-65
2022/03/14 05:16:19;;;;;;;47.72;24.80;;;;;;;-0.55;70.19;102074.56;5075087;28;20041;-65
2022/03/14 05:18:44;;;;;;;43.33;22.95;;;;;;;-0.43;69.50;102074.28;5074339;28;20032;-65
2022/03/14 05:21:10;;;;;;;45.17;23.63;;;;;;;-0.43;69.66;102066.53;5075022;28;20431;-64
2022/03/14 05:23:35;;;;;;;41.67;21.85;;;;;;;-0.37;69.15;102070.28;5070093;28;20542;-64
2022/03/14 05:26:01;;;;;;;34.17;18.90;;;;;;;-0.35;69.82;102076.44;5055138;28;20067;-64
2022/03/14 05:28:26;;;;;;;36.65;18.85;;;;;;;-0.31;69.59;102078.38;5069603;28;20090;-65
2022/03/14 05:30:53;;;;;;;36.80;19.30;;;;;;;-0.28;69.64;102073.34;5071399;28;20451;-64
2022/03/14 05:33:18;;;;;;;33.65;18.15;;;;;;;-0.13;69.25;102082.66;5057017;28;20033;-64
2022/03/14 05:35:43;;;;;;;35.53;18.92;;;;;;;-0.13;68.57;102080.06;5069677;28;20124;-64
2022/03/14 05:38:09;;;;;;;31.67;17.67;;;;;;;-0.07;68.58;102082.97;5063344;28;20042;-64
2022/03/14 05:40:35;;;;;;;46.97;23.27;;;;;;;-0.10;68.75;102083.69;5074889;28;20044;-64
2022/03/14 05:43:06;;;;;;;60.83;27.38;;;;;;;-0.04;68.73;102088.25;5074302;28;20033;-64
2022/03/14 05:45:32;;;;;;;43.60;24.00;;;;;;;0.01;68.87;102086.81;5070472;28;20028;-65
2022/03/14 05:47:57;;;;;;;42.40;22.20;;;;;;;0.10;68.50;102095.00;5072833;28;20068;-64
2022/03/14 05:50:24;;;;;;;40.03;22.33;;;;;;;0.20;68.12;102089.47;5074628;28;20036;-64
2022/03/14 05:52:50;;;;;;;44.20;22.67;;;;;;;0.29;68.01;102095.88;5072558;28;20144;-64
2022/03/14 05:55:15;;;;;;;35.40;18.75;;;;;;;0.37;68.03;102091.97;5069997;28;20563;-64
2022/03/14 05:57:41;;;;;;;38.58;22.35;;;;;;;0.49;67.33;102092.53;5073419;28;20135;-65
2022/03/14 06:00:08;;;;;;;32.90;18.52;;;;;;;0.57;67.32;102098.94;5065082;28;20035;-65
2022/03/14 06:02:35;;;;;;;38.47;20.50;;;;;;;0.69;67.04;102096.91;5042207;28;20037;-65
2022/03/14 06:05:00;;;;;;;45.20;24.88;;;;;;;0.81;66.69;102100.88;5063816;28;20039;-65
2022/03/14 06:07:26;;;;;;;44.92;25.83;;;;;;;0.87;66.53;102106.31;5072146;28;20040;-65
2022/03/14 06:09:51;;;;;;;57.42;32.25;;;;;;;0.97;66.10;102103.34;5064097;28;20029;-66
2022/03/14 06:12:29;;;;;;;56.72;31.13;;;;;;;1.10;66.12;102100.47;5058662;28;20037;-66
2022/03/14 06:14:56;;;;;;;54.58;30.15;;;;;;;1.23;65.52;102101.91;5087526;28;20041;-65
2022/03/14 06:17:21;;;;;;;49.60;27.10;;;;;;;1.28;65.61;102105.59;5067532;28;20424;-65
2022/03/14 06:19:48;;;;;;;51.13;25.25;;;;;;;1.39;65.36;102111.22;5054868;28;20024;-67
2022/03/14 06:22:18;;;;;;;44.88;22.13;;;;;;;1.46;65.51;102110.66;5071762;28;20056;-66
2022/03/14 06:24:46;;;;;;;39.58;20.77;;;;;;;1.55;65.08;102110.16;5055673;28;20036;-67
2022/03/14 06:27:14;;;;;;;53.90;26.67;;;;;;;1.68;64.60;102113.38;5071589;28;20089;-66
2022/03/14 06:29:39;;;;;;;58.40;31.77;;;;;;;1.79;64.23;102111.19;5052481;28;20047;-67
2022/03/14 06:32:05;;;;;;;52.05;27.42;;;;;;;1.91;64.30;102116.00;5073667;28;20111;-67
2022/03/14 06:34:31;;;;;;;39.85;24.13;;;;;;;2.03;63.79;102113.91;5074095;28;20044;-66
2022/03/14 06:36:56;;;;;;;32.75;19.23;;;;;;;2.17;63.11;102128.34;5073780;28;20035;-66
2022/03/14 06:39:22;;;;;;;27.67;16.33;;;;;;;2.21;63.23;102116.38;5074221;28;20044;-67
2022/03/14 06:41:48;;;;;;;24.75;15.13;;;;;;;2.30;62.96;102121.91;5073464;28;20108;-67
2022/03/14 06:44:14;;;;;;;23.73;14.88;;;;;;;2.41;62.55;102110.25;5073922;28;20029;-66
2022/03/14 06:46:40;;;;;;;28.35;16.17;;;;;;;2.45;62.38;102116.47;5056202;28;20032;-67
2022/03/14 06:49:06;;;;;;;28.45;16.77;;;;;;;2.56;62.34;102120.38;5072674;28;20033;-67
2022/03/14 06:51:32;;;;;;;28.98;16.60;;;;;;;2.65;62.00;102119.81;5072528;28;20029;-67
2022/03/14 06:53:58;;;;;;;30.00;17.30;;;;;;;2.80;61.76;102124.72;5072584;28;20395;-67
2022/03/14 06:56:24;;;;;;;27.55;15.77;;;;;;;2.90;61.48;102127.69;5073644;28;20029;-67
2022/03/14 06:58:49;;;;;;;36.55;20.95;;;;;;;2.96;61.14;102127.94;5072496;28;20032;-66
2022/03/14 07:01:15;;;;;;;39.75;21.88;;;;;;;3.11;60.79;102131.91;5073589;28;20066;-67
2022/03/14 07:03:40;;;;;;;30.05;17.70;;;;;;;3.09;60.49;102131.88;5073745;28;20124;-66
2022/03/14 07:06:06;;;;;;;30.63;17.10;;;;;;;3.08;60.83;102131.84;5073685;28;20395;-66
2022/03/14 07:08:31;;;;;;;32.60;18.67;;;;;;;3.21;60.49;102123.66;5070949;28;20068;-66
2022/03/14 07:10:56;;;;;;;29.30;15.52;;;;;;;3.33;60.02;102123.19;5052668;28;20025;-67
2022/03/14 07:13:22;;;;;;;28.50;16.48;;;;;;;3.38;59.68;102116.44;5072371;28;20032;-66
2022/03/14 07:15:47;;;;;;;26.73;15.57;;;;;;;3.49;59.49;102117.72;5056643;28;20029;-66
2022/03/14 07:18:13;;;;;;;28.95;16.95;;;;;;;3.54;59.75;102118.75;5056844;28;20037;-66
2022/03/14 07:20:39;;;;;;;23.20;13.85;;;;;;;3.67;59.13;102114.84;5072334;28;20028;-67
2022/03/14 07:23:06;;;;;;;28.50;16.60;;;;;;;3.76;58.86;102116.91;5069292;28;20033;-67
2022/03/14 07:25:36;;;;;;;26.52;15.30;;;;;;;3.84;58.81;102118.91;5073501;28;20035;-66
2022/03/14 07:28:05;;;;;;;26.75;15.40;;;;;;;3.90;58.45;102119.09;5071116;28;20123;-66
2022/03/14 07:30:30;;;;;;;33.67;17.67;;;;;;;4.03;58.37;102117.81;5073440;28;20070;-66
2022/03/14 07:32:56;;;;;;;30.17;15.48;;;;;;;4.09;58.25;102119.72;5072831;28;20037;-67
2022/03/14 07:35:23;;;;;;;27.33;15.75;;;;;;;4.16;57.89;102112.16;5060516;28;20076;-66
2022/03/14 07:37:49;;;;;;;25.30;14.70;;;;;;;4.26;57.68;102108.13;5052245;28;20110;-66
2022/03/14 07:40:14;;;;;;;30.75;16.95;;;;;;;4.34;57.58;102103.16;5051851;28;20476;-67
2022/03/14 07:42:45;;;;;;;27.85;15.88;;;;;;;4.36;57.44;102102.38;5052543;28;20067;-66
2022/03/14 07:45:13;;;;;;;29.08;16.20;;;;;;;4.50;57.01;102105.41;5051586;28;20029;-65
2022/03/14 07:47:40;;;;;;;44.50;21.70;;;;;;;4.55;56.68;102101.25;5051110;28;20044;-66
2022/03/14 07:50:08;;;;;;;48.75;24.10;;;;;;;4.60;56.84;102101.38;5054464;28;20041;-65
2022/03/14 07:52:34;;;;;;;46.90;24.92;;;;;;;4.65;56.59;102105.88;5068583;28;20126;-66
2022/03/14 07:55:00;;;;;;;41.85;22.55;;;;;;;4.78;56.39;102104.50;5054699;28;20041;-64
2022/03/14 07:57:26;;;;;;;31.38;17.75;;;;;;;4.86;56.15;102107.34;5069903;28;20487;-65
2022/03/14 07:59:52;;;;;;;27.58;16.08;;;;;;;4.92;56.06;102100.59;5071877;28;20036;-65
2022/03/14 08:02:17;;;;;;;26.40;15.98;;;;;;;5.05;55.77;102095.75;5055478;28;20039;-65
2022/03/14 08:04:43;;;;;;;27.60;15.40;;;;;;;5.15;55.39;102102.97;5040466;28;20036;-65
2022/03/14 08:07:08;;;;;;;32.40;18.38;;;;;;;5.25;55.13;102115.41;5076585;28;20036;-66
2022/03/14 08:09:34;;;;;;;26.30;16.55;;;;;;;5.33;54.97;102115.63;5076086;28;20032;-65
2022/03/14 08:12:03;;;;;;;25.42;15.93;;;;;;;5.44;54.71;102119.41;5071623;28;20119;-65
2022/03/14 08:14:29;;;;;;;30.95;16.27;;;;;;;5.52;54.58;102107.47;5061061;28;20384;-66
2022/03/14 08:16:54;;;;;;;29.92;17.48;;;;;;;5.55;54.52;102110.16;5074650;28;20468;-66
2022/03/14 08:19:20;;;;;;;46.15;25.60;;;;;;;5.50;54.36;102108.25;5076332;28;20044;-66
2022/03/14 08:21:46;;;;;;;52.42;27.02;;;;;;;5.49;54.53;102106.50;5075793;28;20063;-65
2022/03/14 08:24:12;;;;;;;32.25;18.88;;;;;;;5.47;54.53;102097.78;5067779;28;20503;-66
2022/03/14 08:26:38;;;;;;;37.42;22.33;;;;;;;5.60;54.24;102100.72;5076074;28;20051;-66
2022/03/14 08:29:04;;;;;;;35.50;20.80;;;;;;;5.62;54.00;102098.16;5074631;28;20035;-66
2022/03/14 08:31:31;;;;;;;28.17;17.15;;;;;;;5.72;53.91;102104.50;5075960;28;20468;-65
2022/03/14 08:33:57;;;;;;;28.60;17.33;;;;;;;5.75;53.79;102100.25;5074903;28;20368;-65
2022/03/14 08:36:22;;;;;;;29.42;17.50;;;;;;;5.89;53.68;102096.25;5058051;28;20032;-65
2022/03/14 08:38:48;;;;;;;29.52;17.75;;;;;;;6.01;53.46;102087.88;5062251;28;20091;-65
2022/03/14 08:41:16;;;;;;;33.08;17.83;;;;;;;6.07;53.31;102088.03;5056977;28;20033;-66
2022/03/14 08:43:43;;;;;;;24.35;15.23;;;;;;;6.14;52.85;102089.94;5066173;28;20480;-65
2022/03/14 08:46:09;;;;;;;32.03;18.13;;;;;;;6.26;53.00;102088.44;5068280;28;20033;-66
2022/03/14 08:48:34;;;;;;;27.08;16.63;;;;;;;6.33;52.59;102086.00;5068863;28;20042;-65
2022/03/14 08:51:00;;;;;;;26.02;15.90;;;;;;;6.41;52.18;102080.97;5074954;28;20419;-65
2022/03/14 08:53:25;;;;;;;30.75;16.60;;;;;;;6.40;52.09;102081.81;5073927;28;20053;-64
2022/03/14 08:55:52;;;;;;;28.08;17.05;;;;;;;6.54;51.85;102075.19;5062479;28;20036;-65
2022/03/14 08:58:17;;;;;;;43.42;28.33;;;;;;;6.66;51.71;102079.75;5072860;28;20037;-64
2022/03/14 09:00:43;;;;;;;29.13;18.15;;;;;;;6.78;51.51;102068.69;5055697;28;20045;-64
2022/03/14 09:03:09;;;;;;;27.20;16.35;;;;;;;6.90;51.39;102076.78;5054848;28;20037;-65
2022/03/14 09:05:35;;;;;;;27.42;15.85;;;;;;;6.92;51.18;102075.09;5056680;28;20457;-65
2022/03/14 09:08:01;;;;;;;29.55;16.58;;;;;;;6.93;51.07;102069.00;5068634;28;20036;-65
2022/03/14 09:10:27;;;;;;;25.35;15.52;;;;;;;7.05;50.73;102074.47;5074089;28;20033;-64
2022/03/14 09:12:52;;;;;;;26.80;16.33;;;;;;;7.09;50.74;102071.06;5054541;28;20439;-65
2022/03/14 09:15:20;;;;;;;22.75;14.70;;;;;;;7.19;50.28;102066.03;5055378;28;20033;-64
2022/03/14 09:17:54;;;;;;;26.13;15.32;;;;;;;7.29;50.10;102062.72;5056419;28;20029;-64
2022/03/14 09:20:21;;;;;;;25.13;15.20;;;;;;;7.33;49.82;102067.16;5054009;28;20029;-64
2022/03/14 09:22:47;;;;;;;26.40;14.98;;;;;;;7.47;49.61;102063.06;5054995;28;20036;-64
2022/03/14 09:25:14;;;;;;;27.55;15.90;;;;;;;7.58;49.45;102071.09;5075069;28;20074;-64
2022/03/14 09:27:40;;;;;;;24.63;15.82;;;;;;;7.61;49.17;102077.25;5058944;28;20045;-64
2022/03/14 09:30:07;;;;;;;24.52;15.32;;;;;;;7.70;48.79;102075.66;5055113;28;20116;-64
2022/03/14 09:32:32;;;;;;;24.40;14.23;;;;;;;7.81;48.86;102064.53;5051547;28;20441;-64
2022/03/14 09:34:59;;;;;;;24.38;14.25;;;;;;;7.92;48.70;102066.44;5074714;28;20519;-65
2022/03/14 09:37:25;;;;;;;28.02;16.92;;;;;;;7.95;48.43;102069.13;5073357;28;20041;-65
2022/03/14 09:39:51;;;;;;;24.13;14.80;;;;;;;8.04;48.29;102062.28;5057220;28;20041;-65
2022/03/14 09:42:20;;;;;;;20.63;13.70;;;;;;;8.15;47.96;102071.19;5074378;28;20036;-65
2022/03/14 09:44:53;;;;;;;25.42;14.57;;;;;;;8.26;47.82;102073.97;5069242;28;20033;-66
2022/03/14 09:47:22;;;;;;;20.65;13.60;;;;;;;8.37;47.30;102061.91;5067426;28;20120;-65
2022/03/14 09:49:52;;;;;;;24.40;15.68;;;;;;;8.37;47.13;102058.41;5057054;28;20438;-64
2022/03/14 09:52:18;;;;;;;24.08;16.08;;;;;;;8.51;46.96;102062.13;5072831;28;20072;-64
2022/03/14 09:54:44;;;;;;;22.40;15.18;;;;;;;8.58;46.95;102061.34;5074500;28;20086;-64
2022/03/14 09:57:10;;;;;;;22.42;14.27;;;;;;;8.73;46.62;102054.53;5069537;28;20033;-64
2022/03/14 09:59:36;;;;;;;22.45;14.40;;;;;;;8.75;46.15;102061.56;5067833;28;20039;-64
2022/03/14 10:02:03;;;;;;;22.13;14.00;;;;;;;8.82;45.94;102058.16;5072899;28;20051;-64
2022/03/14 10:04:28;;;;;;;23.83;15.13;;;;;;;8.93;45.66;102053.03;5073091;28;20036;-64
2022/03/14 10:06:54;;;;;;;20.88;13.93;;;;;;;9.02;45.27;102053.16;5074362;28;20036;-64
2022/03/14 10:09:19;;;;;;;24.50;15.25;;;;;;;9.07;44.95;102054.09;5074255;28;20476;-64
2022/03/14 10:11:45;;;;;;;21.52;14.70;;;;;;;9.19;44.88;102049.84;5039098;28;20035;-64
2022/03/14 10:14:17;;;;;;;22.65;13.55;;;;;;;9.23;44.99;102052.50;5074347;28;20089;-64
2022/03/14 10:16:44;;;;;;;19.42;13.65;;;;;;;9.31;44.53;102055.22;5073036;28;20029;-64
2022/03/14 10:19:10;;;;;;;25.15;14.40;;;;;;;9.37;44.47;102055.25;5069169;28;20037;-64
2022/03/14 10:21:46;;;;;;;27.15;14.10;;;;;;;9.32;43.41;102056.97;5070784;28;20024;-64
2022/03/14 10:24:13;;;;;;;22.05;13.75;;;;;;;9.42;44.29;102044.84;5069152;28;20029;-64
2022/03/14 10:26:45;;;;;;;20.33;13.48;;;;;;;9.52;43.70;102046.66;5071814;28;20396;-64
2022/03/14 10:29:14;;;;;;;21.65;13.45;;;;;;;9.56;43.91;102041.44;5055513;28;20037;-64
2022/03/14 10:31:45;;;;;;;24.90;14.55;;;;;;;9.60;43.51;102029.22;5072775;28;20119;-64
2022/03/14 10:34:16;;;;;;;23.70;14.13;;;;;;;9.71;43.60;102039.84;5072850;28;20145;-64
2022/03/14 10:36:45;;;;;;;23.58;13.85;;;;;;;9.83;43.33;102029.44;5072433;28;20033;-64
2022/03/14 10:39:21;;;;;;;24.08;14.13;;;;;;;9.91;42.29;102034.75;5072527;28;20097;-64
2022/03/14 10:42:03;;;;;;;27.27;14.52;;;;;;;10.02;41.77;102038.31;5073568;28;20071;-64
2022/03/14 10:44:29;;;;;;;21.25;13.27;;;;;;;10.09;42.28;102027.88;5072717;28;20132;-64
2022/03/14 10:46:58;;;;;;;22.35;15.05;;;;;;;10.07;41.71;102028.72;5071447;28;20066;-64
2022/03/14 10:49:38;;;;;;;26.98;15.43;;;;;;;10.09;41.27;102034.84;5073175;28;20427;-64
2022/03/14 10:52:06;;;;;;;21.33;13.25;;;;;;;10.22;41.70;102035.84;5072252;28;20126;-64
2022/03/14 10:54:35;;;;;;;25.40;14.85;;;;;;;10.22;41.25;102038.47;5071758;28;20123;-64
2022/03/14 10:57:07;;;;;;;27.77;15.02;;;;;;;10.28;40.76;102033.25;5057195;28;20050;-64
2022/03/14 10:59:40;;;;;;;26.77;15.20;;;;;;;10.33;41.38;102031.53;5068222;28;20119;-64
2022/03/14 11:02:09;;;;;;;23.27;14.60;;;;;;;10.33;40.95;102032.44;5071326;28;20033;-63
2022/03/14 11:04:41;;;;;;;21.63;13.35;;;;;;;10.39;39.90;102026.31;5068074;28;20032;-64
2022/03/14 11:07:07;;;;;;;23.67;14.73;;;;;;;10.48;40.95;102022.84;5067834;28;20032;-64
2022/03/14 11:09:45;;;;;;;19.83;13.93;;;;;;;10.53;40.23;102024.66;5073203;28;20031;-64
2022/03/14 11:12:14;;;;;;;23.85;12.48;;;;;;;10.58;40.55;102012.41;5075327;28;20028;-64